sensor_id;sensor_type;location;lat;lon;timestamp;pressure;altitude;pressure_sealevel;temperature;humidity
9764;BME280;4921;43.214;27.936;2023-03-04T00:00:20;101187.25;;;9.42;100.00
9764;BME280;4921;43.214;27.936;2023-03-04T00:02:47;101189.66;;;9.45;100.00
9764;BME280;4921;43.214;27.936;2023-03-04T00:05:14;101177.19;;;9.48;100.00
9764;BME280;4921;43.214;27.936;2023-03-04T00:07:41;101174.34;;;9.51;100.00
9764;BME280;4921;43.214;27.936;2023-03-04T00:10:09;101175.09;;;9.53;100.00
9764;BME280;4921;43.214;27.936;2023-03-04T00:12:36;101177.28;;;9.47;100.00
9764;BME280;4921;43.214;27.936;2023-03-04T00:15:06;101190.94;;;9.52;100.00
9764;BME280;4921;43.214;27.936;2023-03-04T00:17:33;101182.97;;;9.53;100.00
9764;BME280;4921;43.214;27.936;2023-03-04T00:20:00;101194.41;;;9.52;100.00
9764;BME280;4921;43.214;27.936;2023-03-04T00:22:27;101192.50;;;9.42;100.00
9764;BME280;4921;43.214;27.936;2023-03-04T00:24:54;101191.06;;;9.50;100.00
9764;BME280;4921;43.214;27.936;2023-03-04T00:27:21;101190.84;;;9.53;100.00
9764;BME280;4921;43.214;27.936;2023-03-04T00:29:47;101195.91;;;9.56;100.00
9764;BME280;4921;43.214;27.936;2023-03-04T00:32:16;101186.25;;;9.57;100.00
9764;BME280;4921;43.214;27.936;2023-03-04T00:34:43;101199.78;;;9.51;100.00
9764;BME280;4921;43.214;27.936;2023-03-04T00:37:10;101200.72;;;9.50;100.00
9764;BME280;4921;43.214;27.936;2023-03-04T00:39:37;101199.78;;;9.51;100.00
9764;BME280;4921;43.214;27.936;2023-03-04T00:42:04;101197.69;;;9.56;100.00
9764;BME280;4921;43.214;27.936;2023-03-04T00:44:31;101194.09;;;9.44;100.00
9764;BME280;4921;43.214;27.936;2023-03-04T00:46:58;101187.44;;;9.39;100.00
9764;BME280;4921;43.214;27.936;2023-03-04T00:49:26;101195.13;;;9.42;100.00
9764;BME280;4921;43.214;27.936;2023-03-04T00:51:53;101183.47;;;9.46;100.00
9764;BME280;4921;43.214;27.936;2023-03-04T00:54:20;101178.03;;;9.49;100.00
9764;BME280;4921;43.214;27.936;2023-03-04T00:56:47;101175.84;;;9.55;100.00
9764;BME280;4921;43.214;27.936;2023-03-04T00:59:14;101169.91;;;9.39;100.00
9764;BME280;4921;43.214;27.936;2023-03-04T01:01:41;101171.38;;;9.31;100.00
9764;BME280;4921;43.214;27.936;2023-03-04T01:04:08;101175.78;;;9.43;100.00
9764;BME280;4921;43.214;27.936;2023-03-04T01:06:36;101168.78;;;9.43;100.00
9764;BME280;4921;43.214;27.936;2023-03-04T01:09:03;101164.78;;;9.38;100.00
9764;BME280;4921;43.214;27.936;2023-03-04T01:11:30;101170.16;;;9.49;100.00
9764;BME280;4921;43.214;27.936;2023-03-04T01:13:57;101151.72;;;9.36;100.00
9764;BME280;4921;43.214;27.936;2023-03-04T01:16:23;101162.59;;;9.44;100.00
9764;BME280;4921;43.214;27.936;2023-03-04T01:18:51;101168.88;;;9.42;100.00
9764;BME280;4921;43.214;27.936;2023-03-04T01:21:17;101164.03;;;9.36;100.00
9764;BME280;4921;43.214;27.936;2023-03-04T01:23:46;101154.16;;;9.39;100.00
9764;BME280;4921;43.214;27.936;2023-03-04T01:26:13;101162.47;;;9.46;100.00
9764;BME280;4921;43.214;27.936;2023-03-04T01:28:40;101158.72;;;9.50;100.00
9764;BME280;4921;43.214;27.936;2023-03-04T01:31:07;101160.41;;;9.51;100.00
9764;BME280;4921;43.214;27.936;2023-03-04T01:33:34;101161.63;;;9.45;100.00
9764;BME280;4921;43.214;27.936;2023-03-04T01:36:01;101160.91;;;9.43;100.00
9764;BME280;4921;43.214;27.936;2023-03-04T01:38:27;101158.72;;;9.50;100.00
9764;BME280;4921;43.214;27.936;2023-03-04T01:40:56;101144.84;;;9.48;100.00
9764;BME280;4921;43.214;27.936;2023-03-04T01:43:25;101126.78;;;9.43;100.00
9764;BME280;4921;43.214;27.936;2023-03-04T01:45:53;101146.44;;;9.63;100.00
9764;BME280;4921;43.214;27.936;2023-03-04T01:48:24;101151.69;;;9.63;100.00
9764;BME280;4921;43.214;27.936;2023-03-04T01:50:51;101147.16;;;9.52;100.00
9764;BME280;4921;43.214;27.936;2023-03-04T01:53:21;101144.44;;;9.54;100.00
9764;BME280;4921;43.214;27.936;2023-03-04T01:55:49;101143.28;;;9.58;100.00
9764;BME280;4921;43.214;27.936;2023-03-04T01:58:19;101143.94;;;9.61;100.00
9764;BME280;4921;43.214;27.936;2023-03-04T02:00:46;101137.31;;;9.68;100.00
9764;BME280;4921;43.214;27.936;2023-03-04T02:03:14;101129.53;;;9.67;100.00
9764;BME280;4921;43.214;27.936;2023-03-04T02:05:44;101132.16;;;9.67;100.00
9764;BME280;4921;43.214;27.936;2023-03-04T02:08:12;101139.72;;;9.71;100.00
9764;BME280;4921;43.214;27.936;2023-03-04T02:10:41;101133.00;;;9.67;100.00
9764;BME280;4921;43.214;27.936;2023-03-04T02:13:09;101135.31;;;9.72;100.00
9764;BME280;4921;43.214;27.936;2023-03-04T02:15:38;101135.31;;;9.72;100.00
9764;BME280;4921;43.214;27.936;2023-03-04T02:18:13;101141.63;;;9.69;100.00
9764;BME280;4921;43.214;27.936;2023-03-04T02:20:47;101137.31;;;9.68;100.00
9764;BME280;4921;43.214;27.936;2023-03-04T02:23:19;101132.81;;;9.70;100.00
9764;BME280;4921;43.214;27.936;2023-03-04T02:25:51;101130.91;;;9.72;100.00
9764;BME280;4921;43.214;27.936;2023-03-04T02:28:22;101132.28;;;9.65;100.00
9764;BME280;4921;43.214;27.936;2023-03-04T02:30:49;101132.28;;;9.65;100.00
9764;BME280;4921;43.214;27.936;2023-03-04T02:33:17;101130.50;;;9.66;100.00
9764;BME280;4921;43.214;27.936;2023-03-04T02:35:45;101133.94;;;9.66;100.00
9764;BME280;4921;43.214;27.936;2023-03-04T02:38:12;101122.50;;;9.67;100.00
9764;BME280;4921;43.214;27.936;2023-03-04T02:40:41;101121.22;;;9.73;100.00
9764;BME280;4921;43.214;27.936;2023-03-04T02:43:10;101132.81;;;9.70;100.00
9764;BME280;4921;43.214;27.936;2023-03-04T02:45:42;101138.47;;;9.77;100.00
9764;BME280;4921;43.214;27.936;2023-03-04T02:48:11;101135.75;;;9.78;100.00
9764;BME280;4921;43.214;27.936;2023-03-04T02:50:40;101144.06;;;9.72;100.00
9764;BME280;4921;43.214;27.936;2023-03-04T02:53:08;101141.84;;;9.79;100.00
9764;BME280;4921;43.214;27.936;2023-03-04T02:55:36;101149.63;;;9.80;100.00
9764;BME280;4921;43.214;27.936;2023-03-04T02:58:03;101151.81;;;9.74;100.00
9764;BME280;4921;43.214;27.936;2023-03-04T03:00:30;101153.16;;;9.67;100.00
9764;BME280;4921;43.214;27.936;2023-03-04T03:02:58;101149.50;;;9.69;100.00
9764;BME280;4921;43.214;27.936;2023-03-04T03:05:27;101155.91;;;9.65;100.00
9764;BME280;4921;43.214;27.936;2023-03-04T03:07:55;101155.16;;;9.63;100.00
9764;BME280;4921;43.214;27.936;2023-03-04T03:10:22;101161.78;;;9.69;100.00
9764;BME280;4921;43.214;27.936;2023-03-04T03:12:49;101151.38;;;9.67;100.00
9764;BME280;4921;43.214;27.936;2023-03-04T03:15:16;101161.34;;;9.62;100.00
9764;BME280;4921;43.214;27.936;2023-03-04T03:17:44;101154.44;;;9.61;100.00
9764;BME280;4921;43.214;27.936;2023-03-04T03:20:13;101166.72;;;9.61;100.00
9764;BME280;4921;43.214;27.936;2023-03-04T03:22:41;101165.97;;;9.59;100.00
9764;BME280;4921;43.214;27.936;2023-03-04T03:25:10;101159.69;;;9.61;100.00
9764;BME280;4921;43.214;27.936;2023-03-04T03:27:37;101159.03;;;9.58;100.00
9764;BME280;4921;43.214;27.936;2023-03-04T03:30:06;101162.50;;;9.58;100.00
9764;BME280;4921;43.214;27.936;2023-03-04T03:32:33;101156.41;;;9.58;100.00
9764;BME280;4921;43.214;27.936;2023-03-04T03:35:00;101154.50;;;9.60;100.00
9764;BME280;4921;43.214;27.936;2023-03-04T03:37:29;101153.59;;;9.61;100.00
9764;BME280;4921;43.214;27.936;2023-03-04T03:39:55;101150.78;;;9.64;100.00
9764;BME280;4921;43.214;27.936;2023-03-04T03:42:22;101158.66;;;9.64;100.00
9764;BME280;4921;43.214;27.936;2023-03-04T03:44:49;101155.16;;;9.63;100.00
9764;BME280;4921;43.214;27.936;2023-03-04T03:47:16;101148.34;;;9.61;100.00
9764;BME280;4921;43.214;27.936;2023-03-04T03:49:43;101158.22;;;9.57;100.00
9764;BME280;4921;43.214;27.936;2023-03-04T03:52:10;101154.41;;;9.49;100.00
9764;BME280;4921;43.214;27.936;2023-03-04T03:54:38;101149.25;;;9.47;100.00
9764;BME280;4921;43.214;27.936;2023-03-04T03:57:05;101158.59;;;9.51;100.00
9764;BME280;4921;43.214;27.936;2023-03-04T03:59:32;101150.41;;;9.56;100.00
9764;BME280;4921;43.214;27.936;2023-03-04T04:01:59;101146.91;;;9.30;100.00
9764;BME280;4921;43.214;27.936;2023-03-04T04:04:26;101152.69;;;9.35;100.00
9764;BME280;4921;43.214;27.936;2023-03-04T04:06:53;101156.50;;;9.44;100.00
9764;BME280;4921;43.214;27.936;2023-03-04T04:09:20;101158.91;;;9.47;100.00
9764;BME280;4921;43.214;27.936;2023-03-04T04:11:48;101157.41;;;9.30;100.00
9764;BME280;4921;43.214;27.936;2023-03-04T04:14:15;101157.25;;;9.19;100.00
9764;BME280;4921;43.214;27.936;2023-03-04T04:16:42;101159.91;;;9.32;100.00
9764;BME280;4921;43.214;27.936;2023-03-04T04:19:15;101161.13;;;9.40;100.00
9764;BME280;4921;43.214;27.936;2023-03-04T04:21:42;101161.94;;;9.41;100.00
9764;BME280;4921;43.214;27.936;2023-03-04T04:24:09;101159.53;;;9.38;100.00
9764;BME280;4921;43.214;27.936;2023-03-04T04:26:36;101168.16;;;9.40;100.00
9764;BME280;4921;43.214;27.936;2023-03-04T04:29:05;101161.75;;;9.44;100.00
9764;BME280;4921;43.214;27.936;2023-03-04T04:31:31;101173.16;;;9.43;100.00
9764;BME280;4921;43.214;27.936;2023-03-04T04:33:58;101168.34;;;9.37;100.00
9764;BME280;4921;43.214;27.936;2023-03-04T04:36:26;101158.94;;;9.20;100.00
9764;BME280;4921;43.214;27.936;2023-03-04T04:38:53;101170.94;;;9.37;100.00
9764;BME280;4921;43.214;27.936;2023-03-04T04:41:22;101170.41;;;9.32;100.00
9764;BME280;4921;43.214;27.936;2023-03-04T04:43:50;101158.97;;;9.33;100.00
9764;BME280;4921;43.214;27.936;2023-03-04T04:46:18;101174.75;;;9.45;100.00
9764;BME280;4921;43.214;27.936;2023-03-04T04:48:46;101183.59;;;9.44;100.00
9764;BME280;4921;43.214;27.936;2023-03-04T04:51:13;101188.44;;;9.50;100.00
9764;BME280;4921;43.214;27.936;2023-03-04T04:53:39;101189.06;;;9.54;100.00
9764;BME280;4921;43.214;27.936;2023-03-04T04:56:11;101191.38;;;9.58;100.00
9764;BME280;4921;43.214;27.936;2023-03-04T04:58:39;101201.03;;;9.58;100.00
9764;BME280;4921;43.214;27.936;2023-03-04T05:01:06;101199.06;;;9.61;100.00
9764;BME280;4921;43.214;27.936;2023-03-04T05:03:35;101205.13;;;9.62;100.00
9764;BME280;4921;43.214;27.936;2023-03-04T05:06:04;101206.06;;;9.48;100.00
9764;BME280;4921;43.214;27.936;2023-03-04T05:08:31;101221.31;;;9.56;100.00
9764;BME280;4921;43.214;27.936;2023-03-04T05:10:59;101210.28;;;9.51;100.00
9764;BME280;4921;43.214;27.936;2023-03-04T05:13:26;101222.88;;;9.58;100.00
9764;BME280;4921;43.214;27.936;2023-03-04T05:15:54;101222.78;;;9.60;100.00
9764;BME280;4921;43.214;27.936;2023-03-04T05:18:22;101220.81;;;9.63;100.00
9764;BME280;4921;43.214;27.936;2023-03-04T05:20:51;101224.47;;;9.61;100.00
9764;BME280;4921;43.214;27.936;2023-03-04T05:23:18;101227.22;;;9.59;100.00
9764;BME280;4921;43.214;27.936;2023-03-04T05:25:45;101225.50;;;9.58;100.00
9764;BME280;4921;43.214;27.936;2023-03-04T05:28:13;101226.06;;;9.63;100.00
9764;BME280;4921;43.214;27.936;2023-03-04T05:30:42;101232.06;;;9.65;100.00
9764;BME280;4921;43.214;27.936;2023-03-04T05:33:10;101239.28;;;9.62;100.00
9764;BME280;4921;43.214;27.936;2023-03-04T05:35:38;101247.16;;;9.62;100.00
9764;BME280;4921;43.214;27.936;2023-03-04T05:38:09;101234.34;;;9.57;100.00
9764;BME280;4921;43.214;27.936;2023-03-04T05:40:36;101240.94;;;9.50;100.00
9764;BME280;4921;43.214;27.936;2023-03-04T05:43:04;101238.47;;;9.35;100.00
9764;BME280;4921;43.214;27.936;2023-03-04T05:45:31;101243.53;;;9.23;100.00
9764;BME280;4921;43.214;27.936;2023-03-04T05:47:58;101241.38;;;9.30;100.00
9764;BME280;4921;43.214;27.936;2023-03-04T05:50:25;101242.38;;;9.42;100.00
9764;BME280;4921;43.214;27.936;2023-03-04T05:52:52;101245.00;;;9.42;100.00
9764;BME280;4921;43.214;27.936;2023-03-04T05:55:21;101236.84;;;9.46;100.00
9764;BME280;4921;43.214;27.936;2023-03-04T05:57:48;101236.97;;;9.57;100.00
9764;BME280;4921;43.214;27.936;2023-03-04T06:00:15;101230.03;;;9.56;100.00
9764;BME280;4921;43.214;27.936;2023-03-04T06:02:43;101234.88;;;9.62;100.00
9764;BME280;4921;43.214;27.936;2023-03-04T06:05:11;101234.25;;;9.59;100.00
9764;BME280;4921;43.214;27.936;2023-03-04T06:07:38;101234.03;;;9.62;100.00
9764;BME280;4921;43.214;27.936;2023-03-04T06:10:08;101233.22;;;9.61;100.00
9764;BME280;4921;43.214;27.936;2023-03-04T06:12:37;101233.84;;;9.65;100.00
9764;BME280;4921;43.214;27.936;2023-03-04T06:15:05;101240.03;;;9.64;100.00
9764;BME280;4921;43.214;27.936;2023-03-04T06:17:34;101243.41;;;9.66;100.00
9764;BME280;4921;43.214;27.936;2023-03-04T06:20:01;101233.22;;;9.74;100.00
9764;BME280;4921;43.214;27.936;2023-03-04T06:22:30;101233.34;;;9.72;100.00
9764;BME280;4921;43.214;27.936;2023-03-04T06:24:57;101236.91;;;9.71;100.00
9764;BME280;4921;43.214;27.936;2023-03-04T06:27:24;101231.16;;;9.79;100.00
9764;BME280;4921;43.214;27.936;2023-03-04T06:29:52;101234.28;;;9.84;100.00
9764;BME280;4921;43.214;27.936;2023-03-04T06:32:19;101232.53;;;9.84;100.00
9764;BME280;4921;43.214;27.936;2023-03-04T06:34:46;101232.41;;;9.86;100.00
9764;BME280;4921;43.214;27.936;2023-03-04T06:37:13;101226.75;;;9.92;100.00
9764;BME280;4921;43.214;27.936;2023-03-04T06:39:40;101226.66;;;9.93;100.00
9764;BME280;4921;43.214;27.936;2023-03-04T06:42:07;101224.88;;;9.94;100.00
9764;BME280;4921;43.214;27.936;2023-03-04T06:44:33;101220.66;;;9.91;100.00
9764;BME280;4921;43.214;27.936;2023-03-04T06:47:02;101214.38;;;9.94;100.00
9764;BME280;4921;43.214;27.936;2023-03-04T06:49:29;101210.66;;;9.96;100.00
9764;BME280;4921;43.214;27.936;2023-03-04T06:51:56;101203.75;;;9.95;100.00
9764;BME280;4921;43.214;27.936;2023-03-04T06:54:23;101202.41;;;10.03;100.00
9764;BME280;4921;43.214;27.936;2023-03-04T06:56:50;101206.50;;;10.07;100.00
9764;BME280;4921;43.214;27.936;2023-03-04T06:59:17;101204.59;;;10.09;100.00
9764;BME280;4921;43.214;27.936;2023-03-04T07:01:44;101195.97;;;10.07;100.00
9764;BME280;4921;43.214;27.936;2023-03-04T07:04:12;101200.38;;;10.06;100.00
9764;BME280;4921;43.214;27.936;2023-03-04T07:06:40;101200.22;;;10.22;100.00
9764;BME280;4921;43.214;27.936;2023-03-04T07:09:07;101184.34;;;10.23;100.00
9764;BME280;4921;43.214;27.936;2023-03-04T07:11:34;101189.16;;;10.29;100.00
9764;BME280;4921;43.214;27.936;2023-03-04T07:14:00;101193.06;;;10.36;100.00
9764;BME280;4921;43.214;27.936;2023-03-04T07:16:27;101186.84;;;10.37;100.00
9764;BME280;4921;43.214;27.936;2023-03-04T07:18:54;101192.50;;;10.44;100.00
9764;BME280;4921;43.214;27.936;2023-03-04T07:21:23;101190.72;;;10.44;100.00
9764;BME280;4921;43.214;27.936;2023-03-04T07:23:50;101187.66;;;10.50;100.00
9764;BME280;4921;43.214;27.936;2023-03-04T07:26:17;101180.41;;;10.54;100.00
9764;BME280;4921;43.214;27.936;2023-03-04T07:28:44;101184.50;;;10.58;100.00
9764;BME280;4921;43.214;27.936;2023-03-04T07:31:21;101177.47;;;10.58;100.00
9764;BME280;4921;43.214;27.936;2023-03-04T07:33:48;101180.38;;;10.66;100.00
9764;BME280;4921;43.214;27.936;2023-03-04T07:36:16;101177.44;;;10.71;100.00
9764;BME280;4921;43.214;27.936;2023-03-04T07:38:46;101162.09;;;10.65;100.00
9764;BME280;4921;43.214;27.936;2023-03-04T07:41:14;101172.47;;;10.79;100.00
9764;BME280;4921;43.214;27.936;2023-03-04T07:43:41;101170.56;;;10.81;100.00
9764;BME280;4921;43.214;27.936;2023-03-04T07:46:08;101180.75;;;10.86;100.00
9764;BME280;4921;43.214;27.936;2023-03-04T07:48:35;101169.47;;;10.96;100.00
9764;BME280;4921;43.214;27.936;2023-03-04T07:51:07;101176.56;;;11.07;100.00
9764;BME280;4921;43.214;27.936;2023-03-04T07:53:35;101185.09;;;11.10;100.00
9764;BME280;4921;43.214;27.936;2023-03-04T07:56:06;101182.75;;;11.18;100.00
9764;BME280;4921;43.214;27.936;2023-03-04T07:58:33;101182.28;;;11.24;100.00
9764;BME280;4921;43.214;27.936;2023-03-04T08:01:00;101179.31;;;11.29;100.00
9764;BME280;4921;43.214;27.936;2023-03-04T08:03:31;101171.94;;;11.34;100.00
9764;BME280;4921;43.214;27.936;2023-03-04T08:05:58;101166.81;;;11.43;100.00
9764;BME280;4921;43.214;27.936;2023-03-04T08:08:25;101165.19;;;11.54;100.00
9764;BME280;4921;43.214;27.936;2023-03-04T08:10:52;101167.03;;;11.64;100.00
9764;BME280;4921;43.214;27.936;2023-03-04T08:13:21;101163.22;;;11.68;100.00
9764;BME280;4921;43.214;27.936;2023-03-04T08:15:48;101157.16;;;11.79;100.00
9764;BME280;4921;43.214;27.936;2023-03-04T08:18:15;101161.94;;;11.85;100.00
9764;BME280;4921;43.214;27.936;2023-03-04T08:20:42;101157.53;;;11.96;100.00
9764;BME280;4921;43.214;27.936;2023-03-04T08:23:09;101153.72;;;12.11;100.00
9764;BME280;4921;43.214;27.936;2023-03-04T08:25:38;101147.13;;;12.17;100.00
9764;BME280;4921;43.214;27.936;2023-03-04T08:28:05;101162.97;;;12.28;100.00
9764;BME280;4921;43.214;27.936;2023-03-04T08:30:34;101162.13;;;12.39;100.00
9764;BME280;4921;43.214;27.936;2023-03-04T08:33:02;101161.25;;;12.38;100.00
9764;BME280;4921;43.214;27.936;2023-03-04T08:35:29;101163.81;;;12.40;100.00
9764;BME280;4921;43.214;27.936;2023-03-04T08:37:56;101166.91;;;12.45;100.00
9764;BME280;4921;43.214;27.936;2023-03-04T08:40:23;101160.91;;;12.43;100.00
9764;BME280;4921;43.214;27.936;2023-03-04T08:42:51;101163.53;;;12.54;100.00
9764;BME280;4921;43.214;27.936;2023-03-04T08:45:19;101164.47;;;12.64;100.00
9764;BME280;4921;43.214;27.936;2023-03-04T08:47:47;101153.31;;;12.82;100.00
9764;BME280;4921;43.214;27.936;2023-03-04T08:50:14;101162.31;;;12.91;100.00
9764;BME280;4921;43.214;27.936;2023-03-04T08:52:41;101161.44;;;13.01;100.00
9764;BME280;4921;43.214;27.936;2023-03-04T08:55:08;101152.44;;;13.04;98.00
9764;BME280;4921;43.214;27.936;2023-03-04T08:57:35;101149.44;;;13.09;93.36
9764;BME280;4921;43.214;27.936;2023-03-04T09:00:02;101149.19;;;13.12;92.65
9764;BME280;4921;43.214;27.936;2023-03-04T09:02:29;101147.63;;;13.09;93.07
9764;BME280;4921;43.214;27.936;2023-03-04T09:04:58;101142.59;;;13.06;91.92
9764;BME280;4921;43.214;27.936;2023-03-04T09:07:25;101138.88;;;13.09;93.70
9764;BME280;4921;43.214;27.936;2023-03-04T09:09:51;101142.31;;;13.20;91.75
9764;BME280;4921;43.214;27.936;2023-03-04T09:12:18;101136.03;;;13.32;89.85
9764;BME280;4921;43.214;27.936;2023-03-04T09:14:45;101140.47;;;13.32;89.45
9764;BME280;4921;43.214;27.936;2023-03-04T09:17:12;101136.94;;;13.42;88.27
9764;BME280;4921;43.214;27.936;2023-03-04T09:19:39;101135.19;;;13.52;89.02
9764;BME280;4921;43.214;27.936;2023-03-04T09:22:07;101134.75;;;13.68;87.89
9764;BME280;4921;43.214;27.936;2023-03-04T09:24:34;101132.03;;;13.79;84.80
9764;BME280;4921;43.214;27.936;2023-03-04T09:27:01;101127.41;;;13.92;82.30
9764;BME280;4921;43.214;27.936;2023-03-04T09:29:28;101124.38;;;14.06;78.43
9764;BME280;4921;43.214;27.936;2023-03-04T09:31:55;101122.34;;;14.10;75.76
9764;BME280;4921;43.214;27.936;2023-03-04T09:34:22;101118.06;;;14.18;77.41
9764;BME280;4921;43.214;27.936;2023-03-04T09:36:49;101118.00;;;14.29;74.51
9764;BME280;4921;43.214;27.936;2023-03-04T09:39:17;101115.38;;;14.39;72.82
9764;BME280;4921;43.214;27.936;2023-03-04T09:41:46;101110.38;;;14.45;70.15
9764;BME280;4921;43.214;27.936;2023-03-04T09:44:20;101106.38;;;14.51;68.55
9764;BME280;4921;43.214;27.936;2023-03-04T09:46:48;101104.44;;;14.53;68.19
9764;BME280;4921;43.214;27.936;2023-03-04T09:49:17;101092.47;;;14.59;68.64
9764;BME280;4921;43.214;27.936;2023-03-04T09:51:54;101095.41;;;14.65;68.30
9764;BME280;4921;43.214;27.936;2023-03-04T09:54:34;101085.53;;;14.77;66.75
9764;BME280;4921;43.214;27.936;2023-03-04T09:57:16;101085.81;;;14.83;68.13
9764;BME280;4921;43.214;27.936;2023-03-04T09:59:49;101080.41;;;14.94;69.02
9764;BME280;4921;43.214;27.936;2023-03-04T10:02:28;101077.75;;;15.04;66.90
9764;BME280;4921;43.214;27.936;2023-03-04T10:05:04;101079.00;;;15.09;67.36
9764;BME280;4921;43.214;27.936;2023-03-04T10:07:35;101075.66;;;15.17;66.64
9764;BME280;4921;43.214;27.936;2023-03-04T10:10:11;101073.28;;;15.23;66.12
9764;BME280;4921;43.214;27.936;2023-03-04T10:12:43;101065.88;;;15.17;66.92
9764;BME280;4921;43.214;27.936;2023-03-04T10:15:21;101068.66;;;15.25;69.14
9764;BME280;4921;43.214;27.936;2023-03-04T10:17:55;101062.94;;;15.40;68.53
9764;BME280;4921;43.214;27.936;2023-03-04T10:20:25;101057.75;;;15.57;64.72
9764;BME280;4921;43.214;27.936;2023-03-04T10:22:57;101051.50;;;15.58;63.43
9764;BME280;4921;43.214;27.936;2023-03-04T10:25:27;101060.00;;;15.98;100.00
9764;BME280;4921;43.214;27.936;2023-03-04T10:27:57;101048.25;;;16.11;73.24
9764;BME280;4921;43.214;27.936;2023-03-04T10:30:37;101044.69;;;16.20;64.04
9764;BME280;4921;43.214;27.936;2023-03-04T10:33:11;101036.16;;;16.26;62.25
9764;BME280;4921;43.214;27.936;2023-03-04T10:35:38;101045.22;;;16.23;61.71
9764;BME280;4921;43.214;27.936;2023-03-04T10:38:12;101042.72;;;16.22;60.88
9764;BME280;4921;43.214;27.936;2023-03-04T10:40:41;101036.47;;;16.13;62.97
9764;BME280;4921;43.214;27.936;2023-03-04T10:43:14;101037.81;;;16.27;62.42
9764;BME280;4921;43.214;27.936;2023-03-04T10:45:41;101028.56;;;16.31;60.81
9764;BME280;4921;43.214;27.936;2023-03-04T10:48:19;101017.66;;;16.34;62.09
9764;BME280;4921;43.214;27.936;2023-03-04T10:50:46;101020.78;;;16.47;59.87
9764;BME280;4921;43.214;27.936;2023-03-04T10:53:31;101007.09;;;16.51;58.36
9764;BME280;4921;43.214;27.936;2023-03-04T10:56:00;101002.88;;;16.49;59.43
9764;BME280;4921;43.214;27.936;2023-03-04T10:58:28;100999.69;;;16.45;59.63
9764;BME280;4921;43.214;27.936;2023-03-04T11:01:00;101002.56;;;16.34;60.59
9764;BME280;4921;43.214;27.936;2023-03-04T11:03:32;101001.50;;;16.27;61.88
9764;BME280;4921;43.214;27.936;2023-03-04T11:06:05;100994.81;;;16.23;61.73
9764;BME280;4921;43.214;27.936;2023-03-04T11:08:32;100979.47;;;15.63;64.41
9764;BME280;4921;43.214;27.936;2023-03-04T11:11:01;100981.88;;;15.47;66.81
9764;BME280;4921;43.214;27.936;2023-03-04T11:13:29;100974.34;;;15.52;66.19
9764;BME280;4921;43.214;27.936;2023-03-04T11:15:59;100969.88;;;15.52;67.41
9764;BME280;4921;43.214;27.936;2023-03-04T11:18:32;100972.22;;;14.99;73.81
9764;BME280;4921;43.214;27.936;2023-03-04T11:21:01;100967.59;;;14.25;78.71
9764;BME280;4921;43.214;27.936;2023-03-04T11:23:34;100967.78;;;14.42;76.52
9764;BME280;4921;43.214;27.936;2023-03-04T11:26:11;100960.28;;;13.98;79.39
9764;BME280;4921;43.214;27.936;2023-03-04T11:28:42;100965.72;;;13.97;81.55
9764;BME280;4921;43.214;27.936;2023-03-04T11:31:13;100955.72;;;14.10;78.14
9764;BME280;4921;43.214;27.936;2023-03-04T11:33:45;100948.47;;;14.12;77.69
9764;BME280;4921;43.214;27.936;2023-03-04T11:36:24;100940.50;;;14.02;76.31
9764;BME280;4921;43.214;27.936;2023-03-04T11:38:55;100934.38;;;13.92;78.39
9764;BME280;4921;43.214;27.936;2023-03-04T11:41:28;100931.63;;;14.03;77.09
9764;BME280;4921;43.214;27.936;2023-03-04T11:43:57;100935.63;;;13.98;77.34
9764;BME280;4921;43.214;27.936;2023-03-04T11:46:36;100938.91;;;13.71;78.67
9764;BME280;4921;43.214;27.936;2023-03-04T11:52:17;100938.72;;;13.63;100.00
9764;BME280;4921;43.214;27.936;2023-03-04T11:54:55;100938.41;;;13.47;88.00
9764;BME280;4921;43.214;27.936;2023-03-04T11:57:33;100931.25;;;13.68;89.53
9764;BME280;4921;43.214;27.936;2023-03-04T12:00:20;100925.81;;;14.19;89.72
9764;BME280;4921;43.214;27.936;2023-03-04T12:03:14;100934.59;;;13.70;83.24
9764;BME280;4921;43.214;27.936;2023-03-04T12:05:51;100931.31;;;13.47;83.94
9764;BME280;4921;43.214;27.936;2023-03-04T12:08:47;100932.75;;;12.69;92.42
9764;BME280;4921;43.214;27.936;2023-03-04T12:11:21;100944.72;;;13.05;96.83
9764;BME280;4921;43.214;27.936;2023-03-04T12:14:03;100934.28;;;13.63;84.15
9764;BME280;4921;43.214;27.936;2023-03-04T12:16:48;100939.31;;;13.76;82.78
9764;BME280;4921;43.214;27.936;2023-03-04T12:19:25;100931.84;;;13.81;81.26
9764;BME280;4921;43.214;27.936;2023-03-04T12:22:07;100937.28;;;13.19;85.17
9764;BME280;4921;43.214;27.936;2023-03-04T12:25:01;100938.38;;;13.17;87.07
9764;BME280;4921;43.214;27.936;2023-03-04T12:27:34;100944.38;;;13.49;90.03
9764;BME280;4921;43.214;27.936;2023-03-04T12:30:18;100935.16;;;13.73;86.12
9764;BME280;4921;43.214;27.936;2023-03-04T12:32:58;100939.72;;;13.62;84.01
9764;BME280;4921;43.214;27.936;2023-03-04T12:35:36;100939.56;;;13.54;84.75
9764;BME280;4921;43.214;27.936;2023-03-04T12:38:31;100939.00;;;13.30;86.99
9764;BME280;4921;43.214;27.936;2023-03-04T12:41:13;100940.88;;;13.18;90.27
9764;BME280;4921;43.214;27.936;2023-03-04T12:43:53;100940.59;;;13.00;95.88
9764;BME280;4921;43.214;27.936;2023-03-04T12:46:34;100930.75;;;13.02;93.65
9764;BME280;4921;43.214;27.936;2023-03-04T12:49:18;100938.13;;;13.20;92.94
9764;BME280;4921;43.214;27.936;2023-03-04T12:51:54;100925.88;;;13.19;92.44
9764;BME280;4921;43.214;27.936;2023-03-04T12:54:30;100919.22;;;13.24;92.31
9764;BME280;4921;43.214;27.936;2023-03-04T12:57:00;100919.16;;;13.35;93.77
9764;BME280;4921;43.214;27.936;2023-03-04T12:59:33;100910.03;;;13.49;93.75
9764;BME280;4921;43.214;27.936;2023-03-04T13:05:02;100913.84;;;13.26;92.29
9764;BME280;4921;43.214;27.936;2023-03-04T13:07:39;100911.44;;;13.53;94.76
9764;BME280;4921;43.214;27.936;2023-03-04T13:10:10;100908.97;;;13.61;91.81
9764;BME280;4921;43.214;27.936;2023-03-04T13:12:49;100903.56;;;13.62;93.15
9764;BME280;4921;43.214;27.936;2023-03-04T13:15:43;100895.63;;;13.72;96.84